sensor_id;sensor_type;location;lat;lon;timestamp;P1;durP1;ratioP1;P2;durP2;ratioP2
50249;SDS011;36133;42.522;27.456;2022-12-28T00:05:46;7.15;;;4.30;;
50249;SDS011;36133;42.522;27.456;2022-12-28T00:08:12;5.72;;;4.05;;
50249;SDS011;36133;42.522;27.456;2022-12-28T00:10:37;6.60;;;4.35;;
50249;SDS011;36133;42.522;27.456;2022-12-28T00:13:03;5.30;;;4.03;;
50249;SDS011;36133;42.522;27.456;2022-12-28T00:15:28;7.85;;;4.60;;
50249;SDS011;36133;42.522;27.456;2022-12-28T00:17:55;5.97;;;4.28;;
50249;SDS011;36133;42.522;27.456;2022-12-28T00:20:22;7.05;;;5.15;;
50249;SDS011;36133;42.522;27.456;2022-12-28T00:22:47;9.32;;;6.53;;
50249;SDS011;36133;42.522;27.456;2022-12-28T00:25:13;12.40;;;6.25;;
50249;SDS011;36133;42.522;27.456;2022-12-28T00:27:38;9.98;;;7.07;;
50249;SDS011;36133;42.522;27.456;2022-12-28T00:33:44;7.70;;;4.72;;
50249;SDS011;36133;42.522;27.456;2022-12-28T00:39:44;5.93;;;4.13;;
50249;SDS011;36133;42.522;27.456;2022-12-28T00:42:10;5.63;;;4.00;;
50249;SDS011;36133;42.522;27.456;2022-12-28T00:44:35;7.65;;;4.10;;
50249;SDS011;36133;42.522;27.456;2022-12-28T00:50:35;6.50;;;4.47;;
50249;SDS011;36133;42.522;27.456;2022-12-28T00:53:01;6.43;;;4.40;;
50249;SDS011;36133;42.522;27.456;2022-12-28T00:55:26;6.93;;;4.30;;
50249;SDS011;36133;42.522;27.456;2022-12-28T01:01:15;9.45;;;5.97;;
50249;SDS011;36133;42.522;27.456;2022-12-28T01:07:05;10.00;;;6.68;;
50249;SDS011;36133;42.522;27.456;2022-12-28T01:09:31;9.07;;;5.05;;
50249;SDS011;36133;42.522;27.456;2022-12-28T01:11:56;8.15;;;5.20;;
50249;SDS011;36133;42.522;27.456;2022-12-28T01:14:22;7.55;;;4.88;;
50249;SDS011;36133;42.522;27.456;2022-12-28T01:16:47;8.95;;;4.32;;
50249;SDS011;36133;42.522;27.456;2022-12-28T01:19:15;4.20;;;3.20;;
50249;SDS011;36133;42.522;27.456;2022-12-28T01:21:43;6.13;;;3.67;;
50249;SDS011;36133;42.522;27.456;2022-12-28T01:24:11;4.82;;;3.33;;
50249;SDS011;36133;42.522;27.456;2022-12-28T01:26:37;5.13;;;3.05;;
50249;SDS011;36133;42.522;27.456;2022-12-28T01:32:32;5.10;;;3.25;;
50249;SDS011;36133;42.522;27.456;2022-12-28T01:38:20;5.45;;;3.53;;
50249;SDS011;36133;42.522;27.456;2022-12-28T01:40:46;6.78;;;3.83;;
50249;SDS011;36133;42.522;27.456;2022-12-28T01:43:12;5.95;;;3.60;;
50249;SDS011;36133;42.522;27.456;2022-12-28T01:45:39;4.10;;;3.20;;
50249;SDS011;36133;42.522;27.456;2022-12-28T01:48:06;4.43;;;3.50;;
50249;SDS011;36133;42.522;27.456;2022-12-28T01:53:07;6.38;;;3.42;;
50249;SDS011;36133;42.522;27.456;2022-12-28T01:55:33;8.77;;;3.80;;
50249;SDS011;36133;42.522;27.456;2022-12-28T01:58:05;4.97;;;3.67;;
50249;SDS011;36133;42.522;27.456;2022-12-28T02:00:35;8.23;;;5.03;;
50249;SDS011;36133;42.522;27.456;2022-12-28T02:03:08;8.57;;;4.05;;
50249;SDS011;36133;42.522;27.456;2022-12-28T02:05:37;7.55;;;4.82;;
50249;SDS011;36133;42.522;27.456;2022-12-28T02:10:39;6.82;;;4.32;;
50249;SDS011;36133;42.522;27.456;2022-12-28T02:13:05;5.93;;;3.55;;
50249;SDS011;36133;42.522;27.456;2022-12-28T02:15:32;5.30;;;3.40;;
50249;SDS011;36133;42.522;27.456;2022-12-28T02:17:58;5.88;;;4.20;;
50249;SDS011;36133;42.522;27.456;2022-12-28T02:20:26;5.65;;;3.53;;
50249;SDS011;36133;42.522;27.456;2022-12-28T02:23:11;5.43;;;3.78;;
50249;SDS011;36133;42.522;27.456;2022-12-28T02:37:50;4.72;;;3.38;;
50249;SDS011;36133;42.522;27.456;2022-12-28T02:40:26;7.00;;;3.78;;
50249;SDS011;36133;42.522;27.456;2022-12-28T02:42:58;7.47;;;3.75;;
50249;SDS011;36133;42.522;27.456;2022-12-28T02:48:48;7.70;;;4.80;;
50249;SDS011;36133;42.522;27.456;2022-12-28T03:07:44;9.70;;;5.97;;
50249;SDS011;36133;42.522;27.456;2022-12-28T03:10:43;8.63;;;5.65;;
50249;SDS011;36133;42.522;27.456;2022-12-28T03:13:51;9.20;;;6.20;;
50249;SDS011;36133;42.522;27.456;2022-12-28T03:19:31;8.68;;;5.47;;
50249;SDS011;36133;42.522;27.456;2022-12-28T03:25:41;13.23;;;6.00;;
50249;SDS011;36133;42.522;27.456;2022-12-28T03:28:28;9.82;;;5.82;;
50249;SDS011;36133;42.522;27.456;2022-12-28T03:31:17;8.00;;;5.80;;
50249;SDS011;36133;42.522;27.456;2022-12-28T03:33:47;9.00;;;6.43;;
50249;SDS011;36133;42.522;27.456;2022-12-28T03:36:21;10.48;;;6.68;;
50249;SDS011;36133;42.522;27.456;2022-12-28T03:41:29;10.77;;;6.95;;
50249;SDS011;36133;42.522;27.456;2022-12-28T03:44:33;10.50;;;7.10;;
50249;SDS011;36133;42.522;27.456;2022-12-28T03:47:09;10.10;;;7.45;;
50249;SDS011;36133;42.522;27.456;2022-12-28T03:49:37;10.07;;;6.82;;
50249;SDS011;36133;42.522;27.456;2022-12-28T03:52:03;11.05;;;7.60;;
50249;SDS011;36133;42.522;27.456;2022-12-28T03:54:31;11.45;;;8.10;;
50249;SDS011;36133;42.522;27.456;2022-12-28T03:56:57;14.90;;;8.93;;
50249;SDS011;36133;42.522;27.456;2022-12-28T03:59:22;13.95;;;9.15;;
50249;SDS011;36133;42.522;27.456;2022-12-28T04:01:48;13.73;;;9.35;;
50249;SDS011;36133;42.522;27.456;2022-12-28T04:04:13;16.02;;;11.13;;
50249;SDS011;36133;42.522;27.456;2022-12-28T04:06:39;13.98;;;9.63;;
50249;SDS011;36133;42.522;27.456;2022-12-28T04:09:04;15.52;;;9.75;;
50249;SDS011;36133;42.522;27.456;2022-12-28T04:11:30;15.95;;;9.75;;
50249;SDS011;36133;42.522;27.456;2022-12-28T04:13:56;16.50;;;9.63;;
50249;SDS011;36133;42.522;27.456;2022-12-28T04:16:22;27.77;;;11.15;;
50249;SDS011;36133;42.522;27.456;2022-12-28T04:18:47;17.35;;;10.07;;
50249;SDS011;36133;42.522;27.456;2022-12-28T04:21:13;16.55;;;10.27;;
50249;SDS011;36133;42.522;27.456;2022-12-28T04:23:40;15.68;;;10.10;;
50249;SDS011;36133;42.522;27.456;2022-12-28T04:26:10;14.05;;;9.88;;
50249;SDS011;36133;42.522;27.456;2022-12-28T04:28:37;22.27;;;10.57;;
50249;SDS011;36133;42.522;27.456;2022-12-28T04:31:04;17.70;;;10.80;;
50249;SDS011;36133;42.522;27.456;2022-12-28T04:33:32;15.25;;;10.75;;
50249;SDS011;36133;42.522;27.456;2022-12-28T04:36:06;15.52;;;10.52;;
50249;SDS011;36133;42.522;27.456;2022-12-28T04:38:33;17.45;;;10.40;;
50249;SDS011;36133;42.522;27.456;2022-12-28T04:40:59;17.45;;;10.18;;
50249;SDS011;36133;42.522;27.456;2022-12-28T04:43:25;14.82;;;10.38;;
50249;SDS011;36133;42.522;27.456;2022-12-28T04:45:57;18.02;;;12.48;;
50249;SDS011;36133;42.522;27.456;2022-12-28T04:51:48;19.05;;;11.48;;
50249;SDS011;36133;42.522;27.456;2022-12-28T04:57:38;18.80;;;11.75;;
50249;SDS011;36133;42.522;27.456;2022-12-28T05:03:27;16.48;;;9.85;;
50249;SDS011;36133;42.522;27.456;2022-12-28T05:12:49;14.63;;;9.10;;
50249;SDS011;36133;42.522;27.456;2022-12-28T05:18:38;14.82;;;8.20;;
50249;SDS011;36133;42.522;27.456;2022-12-28T05:23:32;14.10;;;8.30;;
50249;SDS011;36133;42.522;27.456;2022-12-28T05:26:12;11.23;;;7.82;;
50249;SDS011;36133;42.522;27.456;2022-12-28T05:28:39;13.45;;;7.80;;
50249;SDS011;36133;42.522;27.456;2022-12-28T05:31:08;17.30;;;7.85;;
50249;SDS011;36133;42.522;27.456;2022-12-28T05:36:57;12.90;;;7.97;;
50249;SDS011;36133;42.522;27.456;2022-12-28T05:42:48;11.35;;;6.57;;
50249;SDS011;36133;42.522;27.456;2022-12-28T05:48:42;8.63;;;5.40;;
50249;SDS011;36133;42.522;27.456;2022-12-28T05:54:41;14.90;;;6.57;;
50249;SDS011;36133;42.522;27.456;2022-12-28T06:00:44;10.98;;;3.75;;
50249;SDS011;36133;42.522;27.456;2022-12-28T06:06:47;13.85;;;4.35;;
50249;SDS011;36133;42.522;27.456;2022-12-28T06:12:54;8.35;;;3.80;;
50249;SDS011;36133;42.522;27.456;2022-12-28T06:15:20;7.88;;;4.13;;
50249;SDS011;36133;42.522;27.456;2022-12-28T06:17:45;7.07;;;3.60;;
50249;SDS011;36133;42.522;27.456;2022-12-28T06:20:11;7.38;;;3.85;;
50249;SDS011;36133;42.522;27.456;2022-12-28T06:22:36;9.75;;;4.45;;
50249;SDS011;36133;42.522;27.456;2022-12-28T06:25:02;7.57;;;3.58;;
50249;SDS011;36133;42.522;27.456;2022-12-28T06:31:02;7.05;;;3.88;;
50249;SDS011;36133;42.522;27.456;2022-12-28T06:36:56;6.97;;;3.30;;
50249;SDS011;36133;42.522;27.456;2022-12-28T06:42:53;12.90;;;4.65;;
50249;SDS011;36133;42.522;27.456;2022-12-28T06:51:41;8.50;;;4.35;;
50249;SDS011;36133;42.522;27.456;2022-12-28T06:54:07;13.57;;;4.00;;
50249;SDS011;36133;42.522;27.456;2022-12-28T07:02:37;8.25;;;3.15;;
50249;SDS011;36133;42.522;27.456;2022-12-28T07:05:03;6.60;;;3.30;;
50249;SDS011;36133;42.522;27.456;2022-12-28T07:07:30;12.85;;;3.72;;
50249;SDS011;36133;42.522;27.456;2022-12-28T07:10:12;11.98;;;3.25;;
50249;SDS011;36133;42.522;27.456;2022-12-28T07:15:06;7.47;;;3.10;;
50249;SDS011;36133;42.522;27.456;2022-12-28T07:17:32;10.20;;;3.42;;
50249;SDS011;36133;42.522;27.456;2022-12-28T07:36:07;10.95;;;4.38;;
50249;SDS011;36133;42.522;27.456;2022-12-28T07:38:34;8.77;;;4.50;;
50249;SDS011;36133;42.522;27.456;2022-12-28T07:41:04;12.80;;;4.40;;
50249;SDS011;36133;42.522;27.456;2022-12-28T07:43:31;7.50;;;3.55;;
50249;SDS011;36133;42.522;27.456;2022-12-28T07:46:00;11.07;;;4.00;;
50249;SDS011;36133;42.522;27.456;2022-12-28T07:51:53;8.57;;;3.67;;
50249;SDS011;36133;42.522;27.456;2022-12-28T08:13:52;8.23;;;3.03;;
50249;SDS011;36133;42.522;27.456;2022-12-28T08:16:19;8.68;;;2.65;;
50249;SDS011;36133;42.522;27.456;2022-12-28T08:18:47;6.72;;;3.08;;
50249;SDS011;36133;42.522;27.456;2022-12-28T08:21:17;11.85;;;3.15;;
50249;SDS011;36133;42.522;27.456;2022-12-28T08:23:45;6.18;;;2.65;;
50249;SDS011;36133;42.522;27.456;2022-12-28T08:26:14;10.05;;;2.85;;
50249;SDS011;36133;42.522;27.456;2022-12-28T08:28:44;8.77;;;3.33;;
50249;SDS011;36133;42.522;27.456;2022-12-28T08:31:13;7.80;;;3.47;;
50249;SDS011;36133;42.522;27.456;2022-12-28T08:33:41;10.68;;;3.17;;
50249;SDS011;36133;42.522;27.456;2022-12-28T08:36:07;6.90;;;2.90;;
50249;SDS011;36133;42.522;27.456;2022-12-28T08:38:35;10.27;;;3.25;;
50249;SDS011;36133;42.522;27.456;2022-12-28T08:41:03;14.15;;;3.03;;
50249;SDS011;36133;42.522;27.456;2022-12-28T08:43:31;7.45;;;2.40;;
50249;SDS011;36133;42.522;27.456;2022-12-28T08:46:03;7.82;;;2.95;;
50249;SDS011;36133;42.522;27.456;2022-12-28T08:48:31;11.02;;;2.50;;
50249;SDS011;36133;42.522;27.456;2022-12-28T08:51:02;8.90;;;2.53;;
50249;SDS011;36133;42.522;27.456;2022-12-28T08:56:06;8.93;;;2.63;;
50249;SDS011;36133;42.522;27.456;2022-12-28T08:58:34;10.30;;;2.85;;
50249;SDS011;36133;42.522;27.456;2022-12-28T09:01:43;7.38;;;2.75;;
50249;SDS011;36133;42.522;27.456;2022-12-28T09:03:55;11.82;;;3.03;;
50249;SDS011;36133;42.522;27.456;2022-12-28T09:06:23;9.35;;;2.38;;
50249;SDS011;36133;42.522;27.456;2022-12-28T09:09:14;11.00;;;2.80;;
50249;SDS011;36133;42.522;27.456;2022-12-28T09:14:31;7.95;;;2.58;;
50249;SDS011;36133;42.522;27.456;2022-12-28T09:16:57;7.60;;;2.50;;
50249;SDS011;36133;42.522;27.456;2022-12-28T09:19:24;9.40;;;2.60;;
50249;SDS011;36133;42.522;27.456;2022-12-28T09:21:50;14.57;;;3.03;;
50249;SDS011;36133;42.522;27.456;2022-12-28T09:24:19;10.05;;;3.03;;
50249;SDS011;36133;42.522;27.456;2022-12-28T09:26:46;10.38;;;2.78;;
50249;SDS011;36133;42.522;27.456;2022-12-28T09:29:12;7.43;;;2.83;;
50249;SDS011;36133;42.522;27.456;2022-12-28T09:31:39;11.48;;;4.30;;
50249;SDS011;36133;42.522;27.456;2022-12-28T09:34:09;12.00;;;3.10;;
50249;SDS011;36133;42.522;27.456;2022-12-28T09:36:40;8.90;;;2.80;;
50249;SDS011;36133;42.522;27.456;2022-12-28T09:39:12;9.55;;;3.60;;
50249;SDS011;36133;42.522;27.456;2022-12-28T09:46:51;9.50;;;2.80;;
50249;SDS011;36133;42.522;27.456;2022-12-28T09:49:26;10.95;;;3.35;;
50249;SDS011;36133;42.522;27.456;2022-12-28T09:54:47;10.93;;;3.42;;
50249;SDS011;36133;42.522;27.456;2022-12-28T09:57:13;10.15;;;3.35;;
50249;SDS011;36133;42.522;27.456;2022-12-28T09:59:40;10.82;;;2.97;;
50249;SDS011;36133;42.522;27.456;2022-12-28T10:02:27;11.23;;;3.30;;
50249;SDS011;36133;42.522;27.456;2022-12-28T10:04:59;12.38;;;3.50;;
50249;SDS011;36133;42.522;27.456;2022-12-28T10:07:27;12.15;;;3.50;;
50249;SDS011;36133;42.522;27.456;2022-12-28T10:09:53;10.10;;;2.90;;
50249;SDS011;36133;42.522;27.456;2022-12-28T10:12:24;8.77;;;2.80;;
50249;SDS011;36133;42.522;27.456;2022-12-28T10:14:50;9.38;;;3.65;;
50249;SDS011;36133;42.522;27.456;2022-12-28T10:17:18;11.65;;;3.45;;
50249;SDS011;36133;42.522;27.456;2022-12-28T10:19:49;11.30;;;3.72;;
50249;SDS011;36133;42.522;27.456;2022-12-28T10:22:19;14.80;;;3.45;;
50249;SDS011;36133;42.522;27.456;2022-12-28T10:24:46;15.75;;;4.18;;
50249;SDS011;36133;42.522;27.456;2022-12-28T10:27:23;10.93;;;3.35;;
50249;SDS011;36133;42.522;27.456;2022-12-28T10:29:53;8.98;;;3.40;;
50249;SDS011;36133;42.522;27.456;2022-12-28T10:32:19;11.40;;;3.95;;
50249;SDS011;36133;42.522;27.456;2022-12-28T10:34:59;15.93;;;4.15;;
50249;SDS011;36133;42.522;27.456;2022-12-28T10:37:26;9.13;;;3.25;;
50249;SDS011;36133;42.522;27.456;2022-12-28T10:39:56;13.20;;;3.58;;
50249;SDS011;36133;42.522;27.456;2022-12-28T10:42:57;9.75;;;3.17;;
50249;SDS011;36133;42.522;27.456;2022-12-28T10:45:19;15.52;;;4.28;;
50249;SDS011;36133;42.522;27.456;2022-12-28T10:47:51;10.70;;;4.05;;
50249;SDS011;36133;42.522;27.456;2022-12-28T10:53:19;10.07;;;3.55;;
50249;SDS011;36133;42.522;27.456;2022-12-28T10:55:59;9.00;;;3.20;;
50249;SDS011;36133;42.522;27.456;2022-12-28T10:58:26;8.98;;;3.00;;
50249;SDS011;36133;42.522;27.456;2022-12-28T11:01:38;7.32;;;2.97;;
50249;SDS011;36133;42.522;27.456;2022-12-28T11:08:40;10.65;;;3.58;;
50249;SDS011;36133;42.522;27.456;2022-12-28T11:11:28;13.88;;;3.50;;
50249;SDS011;36133;42.522;27.456;2022-12-28T11:17:23;14.10;;;4.35;;
50249;SDS011;36133;42.522;27.456;2022-12-28T11:29:23;14.93;;;4.93;;
50249;SDS011;36133;42.522;27.456;2022-12-28T11:35:14;12.68;;;4.13;;
50249;SDS011;36133;42.522;27.456;2022-12-28T11:37:52;10.15;;;3.70;;
50249;SDS011;36133;42.522;27.456;2022-12-28T11:45:57;15.65;;;4.03;;
50249;SDS011;36133;42.522;27.456;2022-12-28T11:51:24;13.27;;;4.18;;
50249;SDS011;36133;42.522;27.456;2022-12-28T11:53:56;14.32;;;4.30;;
50249;SDS011;36133;42.522;27.456;2022-12-28T12:01:59;13.85;;;4.35;;
50249;SDS011;36133;42.522;27.456;2022-12-28T12:04:31;13.32;;;3.97;;
50249;SDS011;36133;42.522;27.456;2022-12-28T12:07:15;8.60;;;3.22;;
50249;SDS011;36133;42.522;27.456;2022-12-28T12:09:44;13.17;;;3.73;;
50249;SDS011;36133;42.522;27.456;2022-12-28T12:14:41;15.05;;;4.20;;
50249;SDS011;36133;42.522;27.456;2022-12-28T12:17:14;16.08;;;3.80;;
50249;SDS011;36133;42.522;27.456;2022-12-28T12:19:53;10.93;;;3.22;;
50249;SDS011;36133;42.522;27.456;2022-12-28T12:22:24;15.18;;;4.47;;
50249;SDS011;36133;42.522;27.456;2022-12-28T12:25:03;13.90;;;4.22;;
50249;SDS011;36133;42.522;27.456;2022-12-28T12:27:40;13.45;;;4.13;;
50249;SDS011;36133;42.522;27.456;2022-12-28T12:32:48;12.35;;;3.38;;
50249;SDS011;36133;42.522;27.456;2022-12-28T12:35:27;10.45;;;3.70;;
50249;SDS011;36133;42.522;27.456;2022-12-28T12:38:06;11.00;;;3.70;;
50249;SDS011;36133;42.522;27.456;2022-12-28T12:40:44;12.75;;;4.00;;
50249;SDS011;36133;42.522;27.456;2022-12-28T12:46:11;14.32;;;3.85;;
50249;SDS011;36133;42.522;27.456;2022-12-28T12:49:17;13.52;;;3.97;;
50249;SDS011;36133;42.522;27.456;2022-12-28T12:54:53;9.02;;;3.75;;
50249;SDS011;36133;42.522;27.456;2022-12-28T13:00:21;9.82;;;3.35;;
50249;SDS011;36133;42.522;27.456;2022-12-28T13:05:23;16.98;;;3.78;;
50249;SDS011;36133;42.522;27.456;2022-12-28T13:07:55;13.75;;;4.32;;
50249;SDS011;36133;42.522;27.456;2022-12-28T13:12:55;13.23;;;3.83;;
50249;SDS011;36133;42.522;27.456;2022-12-28T13:15:23;14.43;;;3.83;;
50249;SDS011;36133;42.522;27.456;2022-12-28T13:17:59;10.25;;;3.47;;
50249;SDS011;36133;42.522;27.456;2022-12-28T13:20:55;10.65;;;3.85;;
50249;SDS011;36133;42.522;27.456;2022-12-28T13:23:24;12.07;;;3.80;;
50249;SDS011;36133;42.522;27.456;2022-12-28T13:25:54;9.73;;;3.90;;
50249;SDS011;36133;42.522;27.456;2022-12-28T13:28:27;18.00;;;3.88;;
50249;SDS011;36133;42.522;27.456;2022-12-28T13:30:56;9.43;;;3.42;;
50249;SDS011;36133;42.522;27.456;2022-12-28T13:33:52;18.27;;;4.20;;
50249;SDS011;36133;42.522;27.456;2022-12-28T13:36:19;11.43;;;3.50;;
50249;SDS011;36133;42.522;27.456;2022-12-28T13:38:44;16.77;;;4.38;;
50249;SDS011;36133;42.522;27.456;2022-12-28T13:41:17;15.10;;;4.10;;
50249;SDS011;36133;42.522;27.456;2022-12-28T13:44:08;12.82;;;4.65;;
50249;SDS011;36133;42.522;27.456;2022-12-28T13:50:09;14.85;;;4.50;;
50249;SDS011;36133;42.522;27.456;2022-12-28T13:58:21;15.02;;;4.57;;
50249;SDS011;36133;42.522;27.456;2022-12-28T14:00:54;18.95;;;5.07;;
50249;SDS011;36133;42.522;27.456;2022-12-28T14:03:22;22.15;;;5.55;;
50249;SDS011;36133;42.522;27.456;2022-12-28T14:05:52;17.60;;;4.70;;
50249;SDS011;36133;42.522;27.456;2022-12-28T14:08:23;16.88;;;4.82;;
50249;SDS011;36133;42.522;27.456;2022-12-28T14:10:51;15.13;;;5.43;;
50249;SDS011;36133;42.522;27.456;2022-12-28T14:13:18;16.25;;;5.88;;
50249;SDS011;36133;42.522;27.456;2022-12-28T14:15:45;15.57;;;5.25;;
50249;SDS011;36133;42.522;27.456;2022-12-28T14:18:12;14.90;;;5.30;;
50249;SDS011;36133;42.522;27.456;2022-12-28T14:25:47;19.02;;;5.93;;
50249;SDS011;36133;42.522;27.456;2022-12-28T14:31:07;20.40;;;5.63;;
50249;SDS011;36133;42.522;27.456;2022-12-28T14:33:35;12.30;;;4.22;;
50249;SDS011;36133;42.522;27.456;2022-12-28T14:36:06;16.60;;;5.22;;
50249;SDS011;36133;42.522;27.456;2022-12-28T14:38:45;12.15;;;4.32;;
50249;SDS011;36133;42.522;27.456;2022-12-28T14:41:15;14.95;;;5.22;;
50249;SDS011;36133;42.522;27.456;2022-12-28T14:43:52;15.00;;;5.22;;
50249;SDS011;36133;42.522;27.456;2022-12-28T14:46:33;13.93;;;5.53;;
50249;SDS011;36133;42.522;27.456;2022-12-28T14:51:56;15.07;;;5.00;;
50249;SDS011;36133;42.522;27.456;2022-12-28T14:54:51;11.02;;;4.93;;
50249;SDS011;36133;42.522;27.456;2022-12-28T14:59:48;13.68;;;6.30;;
50249;SDS011;36133;42.522;27.456;2022-12-28T15:02:36;28.08;;;7.80;;
50249;SDS011;36133;42.522;27.456;2022-12-28T15:05:58;14.27;;;5.65;;
50249;SDS011;36133;42.522;27.456;2022-12-28T15:08:24;16.92;;;5.38;;
50249;SDS011;36133;42.522;27.456;2022-12-28T15:10:58;11.98;;;4.53;;
50249;SDS011;36133;42.522;27.456;2022-12-28T15:17:00;14.77;;;4.15;;
50249;SDS011;36133;42.522;27.456;2022-12-28T15:22:47;17.00;;;5.03;;
50249;SDS011;36133;42.522;27.456;2022-12-28T15:28:39;18.15;;;6.20;;
50249;SDS011;36133;42.522;27.456;2022-12-28T15:34:27;23.95;;;8.60;;
50249;SDS011;36133;42.522;27.456;2022-12-28T15:36:52;15.68;;;5.43;;
50249;SDS011;36133;42.522;27.456;2022-12-28T15:39:21;19.40;;;5.18;;
50249;SDS011;36133;42.522;27.456;2022-12-28T15:41:49;12.38;;;5.72;;
50249;SDS011;36133;42.522;27.456;2022-12-28T15:44:18;16.80;;;5.15;;
50249;SDS011;36133;42.522;27.456;2022-12-28T15:50:17;16.38;;;5.38;;
50249;SDS011;36133;42.522;27.456;2022-12-28T15:56:23;21.40;;;8.55;;
50249;SDS011;36133;42.522;27.456;2022-12-28T16:02:12;13.98;;;5.30;;
50249;SDS011;36133;42.522;27.456;2022-12-28T16:04:38;15.73;;;4.88;;
50249;SDS011;36133;42.522;27.456;2022-12-28T16:07:05;22.15;;;6.10;;
50249;SDS011;36133;42.522;27.456;2022-12-28T16:09:36;8.32;;;4.30;;
50249;SDS011;36133;42.522;27.456;2022-12-28T16:12:05;13.75;;;4.20;;
50249;SDS011;36133;42.522;27.456;2022-12-28T16:18:07;18.30;;;6.22;;
50249;SDS011;36133;42.522;27.456;2022-12-28T16:20:40;20.30;;;7.28;;
50249;SDS011;36133;42.522;27.456;2022-12-28T16:23:17;14.18;;;4.53;;
50249;SDS011;36133;42.522;27.456;2022-12-28T16:25:54;19.38;;;5.03;;
50249;SDS011;36133;42.522;27.456;2022-12-28T16:28:35;11.90;;;4.75;;
50249;SDS011;36133;42.522;27.456;2022-12-28T16:35:10;15.63;;;4.38;;
50249;SDS011;36133;42.522;27.456;2022-12-28T16:41:06;13.02;;;4.97;;
50249;SDS011;36133;42.522;27.456;2022-12-28T16:47:01;15.10;;;7.07;;
50249;SDS011;36133;42.522;27.456;2022-12-28T16:49:26;17.70;;;4.32;;
50249;SDS011;36133;42.522;27.456;2022-12-28T16:51:53;8.23;;;4.15;;
50249;SDS011;36133;42.522;27.456;2022-12-28T16:54:19;8.77;;;3.67;;
50249;SDS011;36133;42.522;27.456;2022-12-28T16:56:47;12.43;;;4.00;;
50249;SDS011;36133;42.522;27.456;2022-12-28T16:59:15;10.40;;;3.70;;
50249;SDS011;36133;42.522;27.456;2022-12-28T17:01:43;11.27;;;3.67;;
50249;SDS011;36133;42.522;27.456;2022-12-28T17:04:09;14.57;;;4.40;;
50249;SDS011;36133;42.522;27.456;2022-12-28T17:06:36;13.18;;;4.03;;
50249;SDS011;36133;42.522;27.456;2022-12-28T17:09:03;14.35;;;5.07;;
50249;SDS011;36133;42.522;27.456;2022-12-28T17:11:29;14.68;;;3.85;;
50249;SDS011;36133;42.522;27.456;2022-12-28T17:13:58;10.43;;;4.10;;
50249;SDS011;36133;42.522;27.456;2022-12-28T17:16:25;14.73;;;5.35;;
50249;SDS011;36133;42.522;27.456;2022-12-28T17:18:51;16.52;;;4.72;;
50249;SDS011;36133;42.522;27.456;2022-12-28T17:21:16;12.98;;;4.55;;
50249;SDS011;36133;42.522;27.456;2022-12-28T17:23:44;13.57;;;4.93;;
50249;SDS011;36133;42.522;27.456;2022-12-28T17:28:35;14.48;;;5.70;;
50249;SDS011;36133;42.522;27.456;2022-12-28T17:34:42;15.77;;;5.00;;
50249;SDS011;36133;42.522;27.456;2022-12-28T17:46:28;10.88;;;5.45;;
50249;SDS011;36133;42.522;27.456;2022-12-28T17:52:21;19.38;;;6.88;;
50249;SDS011;36133;42.522;27.456;2022-12-28T17:58:09;14.32;;;6.18;;
50249;SDS011;36133;42.522;27.456;2022-12-28T18:03:57;11.68;;;6.10;;
50249;SDS011;36133;42.522;27.456;2022-12-28T18:06:23;18.13;;;6.22;;
50249;SDS011;36133;42.522;27.456;2022-12-28T18:08:52;15.55;;;6.78;;
50249;SDS011;36133;42.522;27.456;2022-12-28T18:11:18;17.17;;;6.57;;
50249;SDS011;36133;42.522;27.456;2022-12-28T18:13:44;14.77;;;6.30;;
50249;SDS011;36133;42.522;27.456;2022-12-28T18:16:14;16.00;;;6.03;;
50249;SDS011;36133;42.522;27.456;2022-12-28T18:18:41;18.92;;;6.00;;
50249;SDS011;36133;42.522;27.456;2022-12-28T18:21:07;22.05;;;6.57;;
50249;SDS011;36133;42.522;27.456;2022-12-28T18:23:36;21.60;;;6.40;;
50249;SDS011;36133;42.522;27.456;2022-12-28T18:26:11;12.68;;;5.93;;
50249;SDS011;36133;42.522;27.456;2022-12-28T18:32:00;16.85;;;5.80;;
50249;SDS011;36133;42.522;27.456;2022-12-28T18:34:25;14.30;;;5.50;;
50249;SDS011;36133;42.522;27.456;2022-12-28T18:36:50;31.00;;;13.93;;
50249;SDS011;36133;42.522;27.456;2022-12-28T18:39:16;13.32;;;5.43;;
50249;SDS011;36133;42.522;27.456;2022-12-28T18:41:41;15.20;;;4.88;;
50249;SDS011;36133;42.522;27.456;2022-12-28T18:44:07;14.82;;;5.38;;
50249;SDS011;36133;42.522;27.456;2022-12-28T18:46:32;23.40;;;5.55;;
50249;SDS011;36133;42.522;27.456;2022-12-28T18:48:58;17.08;;;5.22;;
50249;SDS011;36133;42.522;27.456;2022-12-28T18:51:24;19.60;;;5.63;;
50249;SDS011;36133;42.522;27.456;2022-12-28T18:53:50;18.20;;;5.38;;
50249;SDS011;36133;42.522;27.456;2022-12-28T18:56:19;14.88;;;5.50;;
50249;SDS011;36133;42.522;27.456;2022-12-28T18:58:49;15.60;;;5.78;;
50249;SDS011;36133;42.522;27.456;2022-12-28T19:01:18;21.00;;;5.85;;
50249;SDS011;36133;42.522;27.456;2022-12-28T19:03:46;17.30;;;6.03;;
50249;SDS011;36133;42.522;27.456;2022-12-28T19:06:13;18.02;;;6.07;;
50249;SDS011;36133;42.522;27.456;2022-12-28T19:08:39;14.95;;;6.63;;
50249;SDS011;36133;42.522;27.456;2022-12-28T19:11:06;15.77;;;5.75;;
50249;SDS011;36133;42.522;27.456;2022-12-28T19:13:32;13.40;;;6.03;;
50249;SDS011;36133;42.522;27.456;2022-12-28T19:16:03;20.90;;;7.30;;
50249;SDS011;36133;42.522;27.456;2022-12-28T19:18:29;24.80;;;9.15;;
50249;SDS011;36133;42.522;27.456;2022-12-28T19:21:38;20.20;;;8.70;;
50249;SDS011;36133;42.522;27.456;2022-12-28T19:23:50;22.42;;;9.13;;
50249;SDS011;36133;42.522;27.456;2022-12-28T19:26:16;18.95;;;7.15;;
50249;SDS011;36133;42.522;27.456;2022-12-28T19:28:42;15.50;;;7.70;;
50249;SDS011;36133;42.522;27.456;2022-12-28T19:34:02;22.40;;;8.45;;
50249;SDS011;36133;42.522;27.456;2022-12-28T19:36:28;18.33;;;8.52;;
50249;SDS011;36133;42.522;27.456;2022-12-28T19:38:54;21.08;;;8.80;;
50249;SDS011;36133;42.522;27.456;2022-12-28T19:41:21;18.17;;;9.25;;
50249;SDS011;36133;42.522;27.456;2022-12-28T19:43:46;18.10;;;8.73;;
50249;SDS011;36133;42.522;27.456;2022-12-28T19:46:13;22.80;;;10.50;;
50249;SDS011;36133;42.522;27.456;2022-12-28T19:51:29;26.50;;;10.27;;
50249;SDS011;36133;42.522;27.456;2022-12-28T19:53:56;25.98;;;10.45;;
50249;SDS011;36133;42.522;27.456;2022-12-28T19:56:21;21.85;;;11.45;;
50249;SDS011;36133;42.522;27.456;2022-12-28T19:58:47;28.00;;;10.50;;
50249;SDS011;36133;42.522;27.456;2022-12-28T20:04:45;23.55;;;10.60;;
50249;SDS011;36133;42.522;27.456;2022-12-28T20:07:11;26.35;;;10.77;;
50249;SDS011;36133;42.522;27.456;2022-12-28T20:09:36;31.98;;;13.27;;
50249;SDS011;36133;42.522;27.456;2022-12-28T20:12:02;27.65;;;12.10;;
50249;SDS011;36133;42.522;27.456;2022-12-28T20:14:28;26.40;;;12.32;;
50249;SDS011;36133;42.522;27.456;2022-12-28T20:16:53;27.83;;;13.30;;
50249;SDS011;36133;42.522;27.456;2022-12-28T20:19:19;34.35;;;14.68;;
50249;SDS011;36133;42.522;27.456;2022-12-28T20:21:44;28.80;;;13.63;;
50249;SDS011;36133;42.522;27.456;2022-12-28T20:24:12;30.55;;;13.60;;
50249;SDS011;36133;42.522;27.456;2022-12-28T20:26:38;27.92;;;14.80;;
50249;SDS011;36133;42.522;27.456;2022-12-28T20:29:04;31.00;;;14.70;;
50249;SDS011;36133;42.522;27.456;2022-12-28T20:34:56;27.60;;;12.80;;
50249;SDS011;36133;42.522;27.456;2022-12-28T20:44:15;41.80;;;16.48;;
50249;SDS011;36133;42.522;27.456;2022-12-28T20:47:25;43.40;;;16.25;;